sensor_id;sensor_type;location;lat;lon;timestamp;pressure;altitude;pressure_sealevel;temperature;humidity
65384;BME280;51986;52.788;41.368;2023-01-15T00:01:29;100659.94;;;-7.11;58.50
65384;BME280;51986;52.788;41.368;2023-01-15T00:03:57;100675.63;;;-7.07;58.52
65384;BME280;51986;52.788;41.368;2023-01-15T00:06:26;100674.47;;;-6.95;57.72
65384;BME280;51986;52.788;41.368;2023-01-15T00:08:53;100645.50;;;-6.95;57.89
65384;BME280;51986;52.788;41.368;2023-01-15T00:11:21;100648.50;;;-7.25;58.79
65384;BME280;51986;52.788;41.368;2023-01-15T00:13:49;100665.00;;;-6.94;57.82
65384;BME280;51986;52.788;41.368;2023-01-15T00:16:22;100673.81;;;-7.07;57.73
65384;BME280;51986;52.788;41.368;2023-01-15T00:18:53;100641.41;;;-7.40;58.75
65384;BME280;51986;52.788;41.368;2023-01-15T00:21:21;100641.38;;;-7.67;58.85
65384;BME280;51986;52.788;41.368;2023-01-15T00:23:48;100646.31;;;-7.60;58.57
65384;BME280;51986;52.788;41.368;2023-01-15T00:26:17;100636.06;;;-7.38;59.13
65384;BME280;51986;52.788;41.368;2023-01-15T00:28:47;100669.16;;;-7.15;58.65
65384;BME280;51986;52.788;41.368;2023-01-15T00:31:15;100681.47;;;-7.12;58.54
65384;BME280;51986;52.788;41.368;2023-01-15T00:33:41;100654.41;;;-7.25;58.44
65384;BME280;51986;52.788;41.368;2023-01-15T00:36:08;100627.97;;;-7.25;58.21
65384;BME280;51986;52.788;41.368;2023-01-15T00:38:35;100659.25;;;-7.28;59.02
65384;BME280;51986;52.788;41.368;2023-01-15T00:41:02;100660.78;;;-7.27;58.70
65384;BME280;51986;52.788;41.368;2023-01-15T00:43:29;100639.50;;;-7.28;58.92
65384;BME280;51986;52.788;41.368;2023-01-15T00:45:56;100657.66;;;-7.07;58.57
65384;BME280;51986;52.788;41.368;2023-01-15T00:48:23;100629.56;;;-7.24;58.54
65384;BME280;51986;52.788;41.368;2023-01-15T00:50:50;100638.84;;;-7.18;58.69
65384;BME280;51986;52.788;41.368;2023-01-15T00:53:17;100639.47;;;-7.06;58.65
65384;BME280;51986;52.788;41.368;2023-01-15T00:55:44;100643.19;;;-7.19;59.06
65384;BME280;51986;52.788;41.368;2023-01-15T00:58:11;100642.00;;;-7.33;58.55
65384;BME280;51986;52.788;41.368;2023-01-15T01:00:38;100654.22;;;-7.40;58.80
65384;BME280;51986;52.788;41.368;2023-01-15T01:03:05;100635.34;;;-7.34;58.83
65384;BME280;51986;52.788;41.368;2023-01-15T01:05:32;100592.03;;;-7.30;58.46
65384;BME280;51986;52.788;41.368;2023-01-15T01:07:59;100629.47;;;-7.07;58.18
65384;BME280;51986;52.788;41.368;2023-01-15T01:10:26;100627.81;;;-6.92;58.37
65384;BME280;51986;52.788;41.368;2023-01-15T01:12:53;100622.44;;;-7.17;58.38
65384;BME280;51986;52.788;41.368;2023-01-15T01:15:22;100589.91;;;-7.11;58.94
65384;BME280;51986;52.788;41.368;2023-01-15T01:17:49;100618.81;;;-6.94;58.32
65384;BME280;51986;52.788;41.368;2023-01-15T01:20:16;100640.75;;;-6.81;57.57
65384;BME280;51986;52.788;41.368;2023-01-15T01:22:48;100605.75;;;-6.93;57.92
65384;BME280;51986;52.788;41.368;2023-01-15T01:25:15;100612.22;;;-7.12;57.76
65384;BME280;51986;52.788;41.368;2023-01-15T01:27:44;100613.63;;;-7.26;58.62
65384;BME280;51986;52.788;41.368;2023-01-15T01:30:12;100639.09;;;-6.93;58.62
65384;BME280;51986;52.788;41.368;2023-01-15T01:32:43;100620.63;;;-6.95;58.32
65384;BME280;51986;52.788;41.368;2023-01-15T01:35:10;100609.25;;;-7.04;58.47
65384;BME280;51986;52.788;41.368;2023-01-15T01:37:37;100612.38;;;-6.97;58.90
65384;BME280;51986;52.788;41.368;2023-01-15T01:40:05;100605.59;;;-7.08;58.52
65384;BME280;51986;52.788;41.368;2023-01-15T01:42:32;100621.38;;;-6.94;58.84
65384;BME280;51986;52.788;41.368;2023-01-15T01:45:11;100595.94;;;-7.01;58.67
65384;BME280;51986;52.788;41.368;2023-01-15T01:47:43;100627.34;;;-6.88;57.82
65384;BME280;51986;52.788;41.368;2023-01-15T01:50:12;100602.44;;;-6.88;57.79
65384;BME280;51986;52.788;41.368;2023-01-15T01:52:48;100619.22;;;-6.80;57.70
65384;BME280;51986;52.788;41.368;2023-01-15T01:55:19;100613.25;;;-6.86;58.29
65384;BME280;51986;52.788;41.368;2023-01-15T01:57:49;100587.19;;;-7.05;58.05
65384;BME280;51986;52.788;41.368;2023-01-15T02:00:19;100619.72;;;-6.78;57.79
65384;BME280;51986;52.788;41.368;2023-01-15T02:02:48;100623.31;;;-6.79;57.57
65384;BME280;51986;52.788;41.368;2023-01-15T02:05:37;100585.69;;;-7.01;57.76
65384;BME280;51986;52.788;41.368;2023-01-15T02:08:06;100594.25;;;-6.90;57.67
65384;BME280;51986;52.788;41.368;2023-01-15T02:10:33;100599.66;;;-6.86;57.48
65384;BME280;51986;52.788;41.368;2023-01-15T02:15:50;100594.22;;;-6.58;58.12
65384;BME280;51986;52.788;41.368;2023-01-15T02:18:26;100605.34;;;-6.79;57.71
65384;BME280;51986;52.788;41.368;2023-01-15T02:27:28;100601.66;;;-6.61;57.69
65384;BME280;51986;52.788;41.368;2023-01-15T02:32:22;100584.56;;;-6.78;58.19
65384;BME280;51986;52.788;41.368;2023-01-15T02:34:55;100581.63;;;-6.92;58.00
65384;BME280;51986;52.788;41.368;2023-01-15T02:37:32;100609.84;;;-6.92;58.42
65384;BME280;51986;52.788;41.368;2023-01-15T02:40:02;100592.97;;;-6.87;58.34
65384;BME280;51986;52.788;41.368;2023-01-15T02:42:33;100606.22;;;-6.69;57.62
65384;BME280;51986;52.788;41.368;2023-01-15T02:45:05;100601.28;;;-6.75;57.63
65384;BME280;51986;52.788;41.368;2023-01-15T02:47:39;100582.59;;;-6.71;57.79
65384;BME280;51986;52.788;41.368;2023-01-15T02:50:15;100567.72;;;-6.69;57.70
65384;BME280;51986;52.788;41.368;2023-01-15T02:52:47;100595.28;;;-6.54;57.20
65384;BME280;51986;52.788;41.368;2023-01-15T02:55:25;100585.34;;;-6.77;56.88
65384;BME280;51986;52.788;41.368;2023-01-15T02:57:57;100584.50;;;-6.56;57.03
65384;BME280;51986;52.788;41.368;2023-01-15T03:00:29;100620.94;;;-6.54;57.91
65384;BME280;51986;52.788;41.368;2023-01-15T03:03:08;100610.09;;;-6.66;57.48
65384;BME280;51986;52.788;41.368;2023-01-15T03:05:47;100631.25;;;-6.49;57.32
65384;BME280;51986;52.788;41.368;2023-01-15T03:08:17;100611.19;;;-6.57;57.12
65384;BME280;51986;52.788;41.368;2023-01-15T03:11:02;100606.63;;;-6.50;57.45
65384;BME280;51986;52.788;41.368;2023-01-15T03:13:41;100597.28;;;-6.61;57.58
65384;BME280;51986;52.788;41.368;2023-01-15T03:16:25;100618.38;;;-6.54;57.91
65384;BME280;51986;52.788;41.368;2023-01-15T03:19:05;100601.25;;;-6.48;57.38
65384;BME280;51986;52.788;41.368;2023-01-15T03:26:59;100611.81;;;-6.40;57.55
65384;BME280;51986;52.788;41.368;2023-01-15T03:29:32;100616.59;;;-6.53;57.37
65384;BME280;51986;52.788;41.368;2023-01-15T03:31:59;100591.47;;;-6.51;56.77
65384;BME280;51986;52.788;41.368;2023-01-15T03:34:35;100589.22;;;-6.43;56.50
65384;BME280;51986;52.788;41.368;2023-01-15T03:37:05;100565.09;;;-6.42;56.56
65384;BME280;51986;52.788;41.368;2023-01-15T03:39:32;100612.69;;;-6.29;57.06
65384;BME280;51986;52.788;41.368;2023-01-15T03:42:47;100587.84;;;-6.55;57.00
65384;BME280;51986;52.788;41.368;2023-01-15T03:45:23;100605.19;;;-6.68;57.69
65384;BME280;51986;52.788;41.368;2023-01-15T03:47:58;100580.63;;;-6.58;56.94
65384;BME280;51986;52.788;41.368;2023-01-15T03:50:41;100597.38;;;-6.51;57.12
65384;BME280;51986;52.788;41.368;2023-01-15T03:53:33;100599.94;;;-6.51;57.67
65384;BME280;51986;52.788;41.368;2023-01-15T03:58:44;100597.38;;;-6.51;57.56
65384;BME280;51986;52.788;41.368;2023-01-15T04:01:20;100573.16;;;-6.60;57.80
65384;BME280;51986;52.788;41.368;2023-01-15T04:03:51;100607.75;;;-6.35;57.26
65384;BME280;51986;52.788;41.368;2023-01-15T04:06:23;100523.34;;;-6.64;56.90
65384;BME280;51986;52.788;41.368;2023-01-15T04:08:52;100567.66;;;-6.42;56.84
65384;BME280;51986;52.788;41.368;2023-01-15T04:11:23;100601.19;;;-6.16;56.65
65384;BME280;51986;52.788;41.368;2023-01-15T04:13:54;100587.56;;;-6.22;56.53
65384;BME280;51986;52.788;41.368;2023-01-15T04:16:37;100614.53;;;-6.19;56.96
65384;BME280;51986;52.788;41.368;2023-01-15T04:19:04;100612.91;;;-6.30;56.43
65384;BME280;51986;52.788;41.368;2023-01-15T04:21:34;100603.00;;;-6.17;56.92
65384;BME280;51986;52.788;41.368;2023-01-15T04:24:01;100599.19;;;-6.09;56.15
65384;BME280;51986;52.788;41.368;2023-01-15T04:26:27;100607.50;;;-5.92;55.86
65384;BME280;51986;52.788;41.368;2023-01-15T04:28:54;100602.69;;;-6.20;55.86
65384;BME280;51986;52.788;41.368;2023-01-15T04:31:21;100617.13;;;-6.19;56.62
65384;BME280;51986;52.788;41.368;2023-01-15T04:33:48;100645.84;;;-6.22;56.05
65384;BME280;51986;52.788;41.368;2023-01-15T04:36:15;100619.56;;;-6.34;56.40
65384;BME280;51986;52.788;41.368;2023-01-15T04:38:42;100612.78;;;-6.51;56.71
65384;BME280;51986;52.788;41.368;2023-01-15T04:41:09;100639.13;;;-6.28;56.45
65384;BME280;51986;52.788;41.368;2023-01-15T04:43:36;100608.84;;;-6.26;55.64
65384;BME280;51986;52.788;41.368;2023-01-15T04:46:03;100612.91;;;-6.30;56.60
65384;BME280;51986;52.788;41.368;2023-01-15T04:48:30;100614.38;;;-6.40;56.85
65384;BME280;51986;52.788;41.368;2023-01-15T04:51:02;100603.28;;;-6.50;56.47
65384;BME280;51986;52.788;41.368;2023-01-15T04:53:28;100609.31;;;-6.29;56.66
65384;BME280;51986;52.788;41.368;2023-01-15T04:56:02;100603.88;;;-6.38;56.75
65384;BME280;51986;52.788;41.368;2023-01-15T04:58:31;100585.88;;;-6.43;56.45
65384;BME280;51986;52.788;41.368;2023-01-15T05:00:58;100583.94;;;-6.26;56.46
65384;BME280;51986;52.788;41.368;2023-01-15T05:03:29;100630.91;;;-6.25;55.68
65384;BME280;51986;52.788;41.368;2023-01-15T05:06:00;100601.59;;;-6.34;56.46
65384;BME280;51986;52.788;41.368;2023-01-15T05:08:28;100595.63;;;-6.45;57.19
65384;BME280;51986;52.788;41.368;2023-01-15T05:10:55;100596.03;;;-6.21;56.00
65384;BME280;51986;52.788;41.368;2023-01-15T05:13:22;100617.03;;;-6.29;56.12
65384;BME280;51986;52.788;41.368;2023-01-15T05:15:49;100612.72;;;-6.24;56.65
65384;BME280;51986;52.788;41.368;2023-01-15T05:18:16;100624.66;;;-6.02;56.21
65384;BME280;51986;52.788;41.368;2023-01-15T05:20:43;100602.47;;;-6.19;56.29
65384;BME280;51986;52.788;41.368;2023-01-15T05:23:10;100612.91;;;-6.30;56.32
65384;BME280;51986;52.788;41.368;2023-01-15T05:25:37;100598.69;;;-6.06;55.50
65384;BME280;51986;52.788;41.368;2023-01-15T05:28:04;100631.00;;;-6.15;56.42
65384;BME280;51986;52.788;41.368;2023-01-15T05:30:31;100608.31;;;-6.28;56.76
65384;BME280;51986;52.788;41.368;2023-01-15T05:32:58;100616.50;;;-5.94;55.84
65384;BME280;51986;52.788;41.368;2023-01-15T05:35:25;100635.34;;;-6.16;56.36
65384;BME280;51986;52.788;41.368;2023-01-15T05:37:52;100597.78;;;-6.27;56.04
65384;BME280;51986;52.788;41.368;2023-01-15T05:40:18;100612.56;;;-6.07;56.23
65384;BME280;51986;52.788;41.368;2023-01-15T05:42:46;100613.88;;;-5.99;55.62
65384;BME280;51986;52.788;41.368;2023-01-15T05:45:12;100612.28;;;-6.05;55.28
65384;BME280;51986;52.788;41.368;2023-01-15T05:47:39;100619.81;;;-5.94;55.57
65384;BME280;51986;52.788;41.368;2023-01-15T05:50:07;100626.56;;;-5.82;56.18
65384;BME280;51986;52.788;41.368;2023-01-15T05:52:34;100621.63;;;-5.94;56.74
65384;BME280;51986;52.788;41.368;2023-01-15T05:55:01;100634.22;;;-5.93;55.80
65384;BME280;51986;52.788;41.368;2023-01-15T05:57:28;100626.38;;;-6.13;56.51
65384;BME280;51986;52.788;41.368;2023-01-15T05:59:55;100607.41;;;-6.07;55.66
65384;BME280;51986;52.788;41.368;2023-01-15T06:02:22;100617.41;;;-6.10;56.67
65384;BME280;51986;52.788;41.368;2023-01-15T06:04:49;100622.69;;;-6.27;56.96
65384;BME280;51986;52.788;41.368;2023-01-15T06:07:16;100617.41;;;-6.10;56.36
65384;BME280;51986;52.788;41.368;2023-01-15T06:09:43;100621.91;;;-5.91;55.81
65384;BME280;51986;52.788;41.368;2023-01-15T06:12:11;100631.63;;;-5.98;56.46
65384;BME280;51986;52.788;41.368;2023-01-15T06:14:37;100614.13;;;-6.01;56.67
65384;BME280;51986;52.788;41.368;2023-01-15T06:17:04;100605.63;;;-6.01;56.58
65384;BME280;51986;52.788;41.368;2023-01-15T06:19:31;100602.72;;;-6.15;56.67
65384;BME280;51986;52.788;41.368;2023-01-15T06:21:58;100614.44;;;-5.92;56.63
65384;BME280;51986;52.788;41.368;2023-01-15T06:24:25;100625.09;;;-5.63;56.03
65384;BME280;51986;52.788;41.368;2023-01-15T06:26:52;100602.25;;;-5.59;55.68
65384;BME280;51986;52.788;41.368;2023-01-15T06:29:19;100617.38;;;-5.68;56.38
65384;BME280;51986;52.788;41.368;2023-01-15T06:31:46;100614.22;;;-5.85;56.85
65384;BME280;51986;52.788;41.368;2023-01-15T06:34:13;100603.44;;;-5.82;56.39
65384;BME280;51986;52.788;41.368;2023-01-15T06:36:40;100618.66;;;-6.18;56.60
65384;BME280;51986;52.788;41.368;2023-01-15T06:39:07;100598.28;;;-5.82;55.85
65384;BME280;51986;52.788;41.368;2023-01-15T06:41:34;100620.44;;;-5.76;55.48
65384;BME280;51986;52.788;41.368;2023-01-15T06:44:01;100618.72;;;-5.55;55.71
65384;BME280;51986;52.788;41.368;2023-01-15T06:46:28;100592.84;;;-5.91;55.87
65384;BME280;51986;52.788;41.368;2023-01-15T06:48:55;100610.34;;;-5.88;55.55
65384;BME280;51986;52.788;41.368;2023-01-15T06:51:22;100612.25;;;-5.63;55.83
65384;BME280;51986;52.788;41.368;2023-01-15T06:53:49;100622.66;;;-5.38;55.04
65384;BME280;51986;52.788;41.368;2023-01-15T06:56:17;100624.66;;;-5.50;55.18
65384;BME280;51986;52.788;41.368;2023-01-15T06:58:44;100616.69;;;-5.48;55.29
65384;BME280;51986;52.788;41.368;2023-01-15T07:01:14;100606.19;;;-5.42;55.10
65384;BME280;51986;52.788;41.368;2023-01-15T07:03:41;100616.25;;;-5.20;54.74
65384;BME280;51986;52.788;41.368;2023-01-15T07:06:10;100605.72;;;-5.28;54.75
65384;BME280;51986;52.788;41.368;2023-01-15T07:08:38;100621.69;;;-5.11;55.10
65384;BME280;51986;52.788;41.368;2023-01-15T07:11:07;100604.97;;;-5.03;54.24
65384;BME280;51986;52.788;41.368;2023-01-15T07:13:35;100606.19;;;-5.31;54.67
65384;BME280;51986;52.788;41.368;2023-01-15T07:16:03;100607.03;;;-5.05;53.99
65384;BME280;51986;52.788;41.368;2023-01-15T07:18:32;100603.72;;;-4.80;54.39
65384;BME280;51986;52.788;41.368;2023-01-15T07:20:59;100569.19;;;-5.20;54.34
65384;BME280;51986;52.788;41.368;2023-01-15T07:23:26;100608.34;;;-4.98;54.36
65384;BME280;51986;52.788;41.368;2023-01-15T07:25:54;100616.84;;;-4.82;54.20
65384;BME280;51986;52.788;41.368;2023-01-15T07:28:22;100609.91;;;-4.66;53.58
65384;BME280;51986;52.788;41.368;2023-01-15T07:30:49;100614.78;;;-4.85;53.57
65384;BME280;51986;52.788;41.368;2023-01-15T07:33:16;100610.91;;;-4.67;54.06
65384;BME280;51986;52.788;41.368;2023-01-15T07:35:43;100633.31;;;-4.68;54.04
65384;BME280;51986;52.788;41.368;2023-01-15T07:38:10;100615.03;;;-4.87;53.95
65384;BME280;51986;52.788;41.368;2023-01-15T07:40:36;100606.78;;;-5.09;54.01
65384;BME280;51986;52.788;41.368;2023-01-15T07:43:03;100614.22;;;-5.07;54.99
65384;BME280;51986;52.788;41.368;2023-01-15T07:45:32;100580.28;;;-5.04;54.17
65384;BME280;51986;52.788;41.368;2023-01-15T07:47:59;100614.72;;;-5.11;54.64
65384;BME280;51986;52.788;41.368;2023-01-15T07:50:26;100590.31;;;-5.08;54.38
65384;BME280;51986;52.788;41.368;2023-01-15T07:52:53;100587.47;;;-4.91;53.87
65384;BME280;51986;52.788;41.368;2023-01-15T07:55:20;100623.28;;;-4.79;53.56
65384;BME280;51986;52.788;41.368;2023-01-15T07:57:48;100595.19;;;-4.86;54.01
65384;BME280;51986;52.788;41.368;2023-01-15T08:00:20;100602.19;;;-4.61;54.54
65384;BME280;51986;52.788;41.368;2023-01-15T08:02:47;100590.09;;;-4.55;53.91
65384;BME280;51986;52.788;41.368;2023-01-15T08:05:14;100600.88;;;-4.53;53.63
65384;BME280;51986;52.788;41.368;2023-01-15T08:07:42;100592.63;;;-4.40;53.54
65384;BME280;51986;52.788;41.368;2023-01-15T08:10:11;100571.78;;;-4.64;54.25
65384;BME280;51986;52.788;41.368;2023-01-15T08:12:39;100599.06;;;-4.58;53.96
65384;BME280;51986;52.788;41.368;2023-01-15T08:15:08;100586.72;;;-4.51;54.24
65384;BME280;51986;52.788;41.368;2023-01-15T08:17:36;100617.09;;;-4.58;54.04
65384;BME280;51986;52.788;41.368;2023-01-15T08:20:05;100574.88;;;-4.82;54.41
65384;BME280;51986;52.788;41.368;2023-01-15T08:22:32;100601.38;;;-4.62;54.68
65384;BME280;51986;52.788;41.368;2023-01-15T08:24:59;100578.44;;;-4.38;53.91
65384;BME280;51986;52.788;41.368;2023-01-15T08:27:26;100564.06;;;-4.59;53.82
65384;BME280;51986;52.788;41.368;2023-01-15T08:29:53;100591.88;;;-4.41;53.61
65384;BME280;51986;52.788;41.368;2023-01-15T08:32:20;100556.34;;;-4.74;54.97
65384;BME280;51986;52.788;41.368;2023-01-15T08:34:47;100559.94;;;-4.50;53.69
65384;BME280;51986;52.788;41.368;2023-01-15T08:37:14;100573.31;;;-4.48;53.51
65384;BME280;51986;52.788;41.368;2023-01-15T08:39:41;100587.22;;;-4.39;54.01
65384;BME280;51986;52.788;41.368;2023-01-15T08:42:08;100580.00;;;-4.31;53.72
65384;BME280;51986;52.788;41.368;2023-01-15T08:44:35;100546.75;;;-4.33;53.75
65384;BME280;51986;52.788;41.368;2023-01-15T08:47:02;100569.44;;;-4.40;54.50
65384;BME280;51986;52.788;41.368;2023-01-15T08:49:29;100542.34;;;-4.12;53.77
65384;BME280;51986;52.788;41.368;2023-01-15T08:51:55;100577.09;;;-4.10;53.21
65384;BME280;51986;52.788;41.368;2023-01-15T08:54:22;100568.84;;;-4.01;53.28
65384;BME280;51986;52.788;41.368;2023-01-15T08:56:50;100542.75;;;-3.90;52.90
65384;BME280;51986;52.788;41.368;2023-01-15T08:59:17;100539.97;;;-3.93;52.54
65384;BME280;51986;52.788;41.368;2023-01-15T09:01:44;100542.06;;;-4.05;53.10
65384;BME280;51986;52.788;41.368;2023-01-15T09:04:16;100555.25;;;-4.22;53.73
65384;BME280;51986;52.788;41.368;2023-01-15T09:06:45;100532.00;;;-4.02;52.69
65384;BME280;51986;52.788;41.368;2023-01-15T09:09:12;100525.25;;;-3.93;53.45
65384;BME280;51986;52.788;41.368;2023-01-15T09:11:41;100533.97;;;-3.78;52.43
65384;BME280;51986;52.788;41.368;2023-01-15T09:14:09;100549.31;;;-3.53;52.19
65384;BME280;51986;52.788;41.368;2023-01-15T09:16:56;100535.78;;;-3.35;51.68
65384;BME280;51986;52.788;41.368;2023-01-15T09:19:23;100541.91;;;-3.20;51.09
65384;BME280;51986;52.788;41.368;2023-01-15T09:21:50;100528.44;;;-3.12;51.13
65384;BME280;51986;52.788;41.368;2023-01-15T09:24:17;100540.69;;;-2.99;50.75
65384;BME280;51986;52.788;41.368;2023-01-15T09:26:44;100510.16;;;-2.87;51.01
65384;BME280;51986;52.788;41.368;2023-01-15T09:29:11;100508.41;;;-2.67;50.78
65384;BME280;51986;52.788;41.368;2023-01-15T09:31:38;100517.06;;;-2.82;50.22
65384;BME280;51986;52.788;41.368;2023-01-15T09:34:05;100500.47;;;-2.47;49.92
65384;BME280;51986;52.788;41.368;2023-01-15T09:36:33;100510.31;;;-2.49;50.31
65384;BME280;51986;52.788;41.368;2023-01-15T09:39:02;100534.84;;;-2.22;50.10
65384;BME280;51986;52.788;41.368;2023-01-15T09:42:01;100525.63;;;-2.87;50.22
65384;BME280;51986;52.788;41.368;2023-01-15T09:44:38;100513.06;;;-2.64;51.04
65384;BME280;51986;52.788;41.368;2023-01-15T09:47:31;100518.31;;;-2.74;50.27
65384;BME280;51986;52.788;41.368;2023-01-15T09:52:57;100507.38;;;-2.18;49.86
65384;BME280;51986;52.788;41.368;2023-01-15T09:55:31;100495.34;;;-2.28;50.14
65384;BME280;51986;52.788;41.368;2023-01-15T09:58:01;100497.00;;;-2.37;50.54
65384;BME280;51986;52.788;41.368;2023-01-15T10:00:46;100503.34;;;-2.24;50.35
65384;BME280;51986;52.788;41.368;2023-01-15T10:03:47;100504.16;;;-2.29;50.38
65384;BME280;51986;52.788;41.368;2023-01-15T10:06:27;100513.50;;;-2.33;49.99
65384;BME280;51986;52.788;41.368;2023-01-15T10:09:05;100498.16;;;-2.24;50.33
65384;BME280;51986;52.788;41.368;2023-01-15T10:11:46;100497.03;;;-1.76;49.23
65384;BME280;51986;52.788;41.368;2023-01-15T10:14:29;100486.09;;;-2.10;49.44
65384;BME280;51986;52.788;41.368;2023-01-15T10:16:57;100483.47;;;-2.05;49.52
65384;BME280;51986;52.788;41.368;2023-01-15T10:19:24;100497.06;;;-2.18;49.93
65384;BME280;51986;52.788;41.368;2023-01-15T10:24:57;100497.75;;;-2.13;50.44
65384;BME280;51986;52.788;41.368;2023-01-15T10:27:26;100461.25;;;-2.06;50.33
65384;BME280;51986;52.788;41.368;2023-01-15T10:30:04;100465.78;;;-1.79;49.77
65384;BME280;51986;52.788;41.368;2023-01-15T10:32:38;100510.53;;;-1.41;49.12
65384;BME280;51986;52.788;41.368;2023-01-15T10:38:05;100496.63;;;-1.45;48.97
65384;BME280;51986;52.788;41.368;2023-01-15T10:43:41;100476.34;;;-1.76;49.53
65384;BME280;51986;52.788;41.368;2023-01-15T10:46:16;100470.84;;;-1.88;49.33
65384;BME280;51986;52.788;41.368;2023-01-15T10:48:47;100470.25;;;-1.66;49.22
65384;BME280;51986;52.788;41.368;2023-01-15T10:51:22;100480.75;;;-1.76;49.23
65384;BME280;51986;52.788;41.368;2023-01-15T10:53:58;100488.13;;;-1.64;49.36
65384;BME280;51986;52.788;41.368;2023-01-15T10:56:33;100460.41;;;-1.45;48.69
65384;BME280;51986;52.788;41.368;2023-01-15T11:01:40;100463.53;;;-1.48;49.20
65384;BME280;51986;52.788;41.368;2023-01-15T11:04:09;100451.69;;;-1.68;49.21
65384;BME280;51986;52.788;41.368;2023-01-15T11:06:36;100462.94;;;-1.78;49.46
65384;BME280;51986;52.788;41.368;2023-01-15T11:09:03;100433.66;;;-1.73;49.38
65384;BME280;51986;52.788;41.368;2023-01-15T11:11:39;100433.06;;;-1.89;50.09
65384;BME280;51986;52.788;41.368;2023-01-15T11:14:06;100437.00;;;-1.91;49.93
65384;BME280;51986;52.788;41.368;2023-01-15T11:16:36;100452.59;;;-1.96;50.10
65384;BME280;51986;52.788;41.368;2023-01-15T11:19:23;100464.00;;;-1.79;49.08
65384;BME280;51986;52.788;41.368;2023-01-15T11:21:52;100453.06;;;-1.57;49.15
65384;BME280;51986;52.788;41.368;2023-01-15T11:24:19;100440.56;;;-1.68;49.45
65384;BME280;51986;52.788;41.368;2023-01-15T11:26:50;100458.88;;;-1.84;49.75
65384;BME280;51986;52.788;41.368;2023-01-15T11:29:30;100442.31;;;-2.02;49.49
65384;BME280;51986;52.788;41.368;2023-01-15T11:31:58;100447.41;;;-1.96;49.89
65384;BME280;51986;52.788;41.368;2023-01-15T11:34:25;100454.78;;;-2.51;50.82
65384;BME280;51986;52.788;41.368;2023-01-15T11:37:03;100459.56;;;-2.64;51.49
65384;BME280;51986;52.788;41.368;2023-01-15T11:39:30;100455.41;;;-2.36;50.86
65384;BME280;51986;52.788;41.368;2023-01-15T11:42:04;100442.91;;;-2.76;51.88
65384;BME280;51986;52.788;41.368;2023-01-15T11:44:31;100447.66;;;-3.13;53.20
65384;BME280;51986;52.788;41.368;2023-01-15T11:46:58;100409.66;;;-3.07;52.75
65384;BME280;51986;52.788;41.368;2023-01-15T11:49:26;100438.09;;;-2.59;52.44
65384;BME280;51986;52.788;41.368;2023-01-15T11:51:54;100458.25;;;-2.61;52.13
65384;BME280;51986;52.788;41.368;2023-01-15T11:54:23;100451.19;;;-2.50;51.77
65384;BME280;51986;52.788;41.368;2023-01-15T11:56:51;100444.91;;;-2.68;51.66
65384;BME280;51986;52.788;41.368;2023-01-15T11:59:18;100443.34;;;-2.93;52.20
65384;BME280;51986;52.788;41.368;2023-01-15T12:01:58;100425.09;;;-3.02;53.53
65384;BME280;51986;52.788;41.368;2023-01-15T12:04:56;100466.72;;;-2.85;53.29
65384;BME280;51986;52.788;41.368;2023-01-15T12:07:25;100476.66;;;-2.97;53.51
65384;BME280;51986;52.788;41.368;2023-01-15T12:18:23;100452.41;;;-2.72;53.20
65384;BME280;51986;52.788;41.368;2023-01-15T12:21:35;100452.81;;;-2.84;52.97
65384;BME280;51986;52.788;41.368;2023-01-15T12:26:29;100441.97;;;-2.86;53.82
65384;BME280;51986;52.788;41.368;2023-01-15T12:31:48;100429.19;;;-3.01;53.82
65384;BME280;51986;52.788;41.368;2023-01-15T12:34:27;100454.97;;;-2.96;54.09
65384;BME280;51986;52.788;41.368;2023-01-15T12:37:05;100453.44;;;-2.97;54.58
65384;BME280;51986;52.788;41.368;2023-01-15T12:39:45;100462.13;;;-3.17;54.26
65384;BME280;51986;52.788;41.368;2023-01-15T12:42:17;100424.03;;;-3.30;54.96
65384;BME280;51986;52.788;41.368;2023-01-15T12:44:50;100445.06;;;-3.47;55.00
65384;BME280;51986;52.788;41.368;2023-01-15T12:47:23;100433.75;;;-3.17;54.74
65384;BME280;51986;52.788;41.368;2023-01-15T12:50:00;100435.66;;;-3.33;54.88
65384;BME280;51986;52.788;41.368;2023-01-15T12:52:35;100436.69;;;-3.34;54.93
65384;BME280;51986;52.788;41.368;2023-01-15T12:55:29;100412.19;;;-3.31;54.75
65384;BME280;51986;52.788;41.368;2023-01-15T12:58:00;100422.84;;;-3.43;55.04
65384;BME280;51986;52.788;41.368;2023-01-15T13:00:33;100435.97;;;-3.73;54.63
65384;BME280;51986;52.788;41.368;2023-01-15T13:05:47;100430.41;;;-3.96;54.97
65384;BME280;51986;52.788;41.368;2023-01-15T13:08:28;100426.34;;;-4.02;55.22
65384;BME280;51986;52.788;41.368;2023-01-15T13:10:57;100375.00;;;-4.43;55.85
65384;BME280;51986;52.788;41.368;2023-01-15T13:13:29;100426.63;;;-4.14;55.02
65384;BME280;51986;52.788;41.368;2023-01-15T13:16:21;100432.84;;;-4.20;55.55
65384;BME280;51986;52.788;41.368;2023-01-15T13:19:07;100416.16;;;-4.27;55.06
65384;BME280;51986;52.788;41.368;2023-01-15T13:21:38;100391.44;;;-4.34;55.73
65384;BME280;51986;52.788;41.368;2023-01-15T13:24:31;100426.75;;;-4.39;55.89
65384;BME280;51986;52.788;41.368;2023-01-15T13:27:04;100400.69;;;-4.27;55.12
65384;BME280;51986;52.788;41.368;2023-01-15T13:32:32;100414.06;;;-4.25;55.09
65384;BME280;51986;52.788;41.368;2023-01-15T13:35:25;100406.78;;;-4.08;55.51
65384;BME280;51986;52.788;41.368;2023-01-15T13:37:57;100423.25;;;-4.09;54.92
65384;BME280;51986;52.788;41.368;2023-01-15T13:40:49;100387.84;;;-4.38;55.70
65384;BME280;51986;52.788;41.368;2023-01-15T13:43:33;100399.06;;;-4.08;54.76
65384;BME280;51986;52.788;41.368;2023-01-15T13:46:02;100402.81;;;-4.45;55.23
65384;BME280;51986;52.788;41.368;2023-01-15T13:48:35;100414.59;;;-4.28;54.89
65384;BME280;51986;52.788;41.368;2023-01-15T13:51:16;100402.75;;;-4.29;55.82
65384;BME280;51986;52.788;41.368;2023-01-15T13:53:48;100393.50;;;-4.30;55.06